createdAt,value
2022-10-29T00:00:54.574Z,15.70
2022-10-29T00:03:22.331Z,17.80
2022-10-29T00:06:06.501Z,40.50
2022-10-29T00:08:38.163Z,27.63
2022-10-29T00:11:15.854Z,21.03
2022-10-29T00:13:43.383Z,16.70
2022-10-29T00:16:15.913Z,27.50
2022-10-29T00:18:43.873Z,23.90
2022-10-29T00:21:14.135Z,16.50
2022-10-29T00:23:41.507Z,26.70
2022-10-29T00:26:08.873Z,14.00
2022-10-29T00:28:37.117Z,23.67
2022-10-29T00:31:10.193Z,14.27
2022-10-29T00:33:37.127Z,22.97
2022-10-29T00:36:10.714Z,24.03
2022-10-29T00:38:37.648Z,22.13
2022-10-29T00:41:06.366Z,23.93
2022-10-29T00:43:35.530Z,26.30
2022-10-29T00:46:09.274Z,28.83
2022-10-29T00:48:41.060Z,30.47
2022-10-29T00:51:10.767Z,26.27
2022-10-29T00:53:42.486Z,24.90
2022-10-29T00:56:09.609Z,30.47
2022-10-29T00:58:36.568Z,13.60
2022-10-29T01:01:03.921Z,27.97
2022-10-29T01:03:30.784Z,25.47
2022-10-29T01:05:58.598Z,18.57
2022-10-29T01:08:25.570Z,23.20
2022-10-29T01:11:46.406Z,21.83
2022-10-29T01:14:53.236Z,26.20
2022-10-29T01:18:12.656Z,25.30
2022-10-29T01:21:30.930Z,22.10
2022-10-29T01:24:40.064Z,23.43
2022-10-29T01:27:55.524Z,34.30
2022-10-29T01:30:59.298Z,23.83
2022-10-29T01:33:53.707Z,35.73
2022-10-29T01:36:57.082Z,29.73
2022-10-29T01:39:59.145Z,24.17
2022-10-29T01:42:51.284Z,24.03
2022-10-29T01:45:27.160Z,20.33
2022-10-29T01:48:01.592Z,17.90
2022-10-29T01:50:29.114Z,31.63
2022-10-29T01:52:56.967Z,32.90
2022-10-29T01:55:30.580Z,21.43
2022-10-29T01:57:57.770Z,25.10
2022-10-29T02:00:25.730Z,25.33
2022-10-29T02:03:17.240Z,20.87
2022-10-29T02:06:07.109Z,20.40
2022-10-29T02:09:26.364Z,25.70
2022-10-29T02:12:22.969Z,20.93
2022-10-29T02:15:13.355Z,21.67
2022-10-29T02:17:40.345Z,23.73
2022-10-29T02:20:10.364Z,23.70
2022-10-29T02:22:37.550Z,24.07
2022-10-29T02:25:05.845Z,28.23
2022-10-29T02:27:32.917Z,29.77
2022-10-29T02:29:59.922Z,22.80
2022-10-29T02:32:26.779Z,22.20
2022-10-29T02:34:53.705Z,20.13
2022-10-29T02:37:20.589Z,30.67
2022-10-29T02:39:47.539Z,34.10
2022-10-29T02:42:14.427Z,16.50
2022-10-29T02:44:41.381Z,22.33
2022-10-29T02:47:08.194Z,21.27
2022-10-29T02:49:35.099Z,20.27
2022-10-29T02:52:02.011Z,33.17
2022-10-29T02:54:28.927Z,39.73
2022-10-29T02:56:55.837Z,32.13
2022-10-29T02:59:22.728Z,29.37
2022-10-29T03:01:49.774Z,21.93
2022-10-29T03:04:16.824Z,33.37
2022-10-29T03:06:43.684Z,25.10
2022-10-29T03:09:10.588Z,24.53
2022-10-29T03:11:37.479Z,32.90
2022-10-29T03:14:04.397Z,33.13
2022-10-29T03:16:31.242Z,34.33
2022-10-29T03:18:58.186Z,33.73
2022-10-29T03:21:25.061Z,35.63
2022-10-29T03:23:52.237Z,30.63
2022-10-29T03:26:19.179Z,18.77
2022-10-29T03:31:17.796Z,26.53
2022-10-29T03:33:44.735Z,22.50
2022-10-29T03:36:11.858Z,30.10
2022-10-29T03:38:38.837Z,23.87
2022-10-29T03:41:10.502Z,29.10
2022-10-29T03:43:38.744Z,27.70
2022-10-29T03:46:06.265Z,41.00
2022-10-29T03:48:33.319Z,21.33
2022-10-29T03:51:02.607Z,32.77
2022-10-29T03:53:29.891Z,23.23
2022-10-29T03:55:57.854Z,35.40
2022-10-29T03:58:25.859Z,35.63
2022-10-29T04:01:04.740Z,27.93
2022-10-29T04:03:33.505Z,19.70
2022-10-29T04:06:01.917Z,28.30
2022-10-29T04:08:29.387Z,23.23
2022-10-29T04:10:56.231Z,34.93
2022-10-29T04:13:23.142Z,26.43
2022-10-29T04:15:54.942Z,21.87
2022-10-29T04:18:22.178Z,24.77
2022-10-29T04:29:10.185Z,27.40
2022-10-29T04:31:37.975Z,39.30
2022-10-29T04:34:05.189Z,21.93
2022-10-29T04:36:32.215Z,29.33
2022-10-29T04:38:59.109Z,31.33
2022-10-29T04:41:26.027Z,35.30
2022-10-29T04:43:52.927Z,34.03
2022-10-29T04:46:19.816Z,27.27
2022-10-29T04:48:46.801Z,25.47
2022-10-29T04:51:23.185Z,33.63
2022-10-29T04:53:50.527Z,27.67
2022-10-29T04:56:18.235Z,31.60
2022-10-29T04:58:45.284Z,31.23
2022-10-29T05:01:12.422Z,24.50
2022-10-29T05:03:39.691Z,22.03
2022-10-29T05:06:07.181Z,22.87
2022-10-29T05:08:34.491Z,41.37
2022-10-29T05:11:05.862Z,25.87
2022-10-29T05:13:33.447Z,30.63
2022-10-29T05:16:00.522Z,42.83
2022-10-29T05:18:27.459Z,28.77
2022-10-29T05:20:55.513Z,29.47
2022-10-29T05:23:22.370Z,31.30
2022-10-29T05:25:51.338Z,26.30
2022-10-29T05:28:21.012Z,31.97
2022-10-29T05:30:49.581Z,28.20
2022-10-29T05:33:19.146Z,33.83
2022-10-29T05:35:46.644Z,36.43
2022-10-29T05:38:14.382Z,30.80
2022-10-29T05:40:45.533Z,31.63
2022-10-29T05:43:17.164Z,24.27
2022-10-29T05:45:44.781Z,26.67
2022-10-29T05:50:44.701Z,23.43
2022-10-29T05:53:13.774Z,42.23
2022-10-29T05:55:41.407Z,51.57
2022-10-29T05:58:11.938Z,50.77
2022-10-29T06:00:41.762Z,59.30
2022-10-29T06:03:19.388Z,53.80
2022-10-29T06:05:50.748Z,56.73
2022-10-29T06:08:18.113Z,73.53
2022-10-29T06:10:45.286Z,62.00
2022-10-29T06:13:18.059Z,44.40
2022-10-29T06:15:45.985Z,55.40
2022-10-29T06:18:13.133Z,73.93
2022-10-29T06:20:40.407Z,56.63
2022-10-29T06:23:07.433Z,52.27
2022-10-29T06:25:34.343Z,28.00
2022-10-29T06:28:06.318Z,37.23
2022-10-29T06:30:35.280Z,30.67
2022-10-29T06:33:03.133Z,32.20
2022-10-29T06:35:30.452Z,34.67
2022-10-29T06:37:57.987Z,34.63
2022-10-29T06:40:25.727Z,32.23
2022-10-29T06:43:03.200Z,31.50
2022-10-29T06:45:33.915Z,22.60
2022-10-29T06:48:01.110Z,28.80
2022-10-29T06:50:28.539Z,31.33
2022-10-29T06:52:57.509Z,22.80
2022-10-29T06:55:25.165Z,34.43
2022-10-29T06:58:00.195Z,29.57
2022-10-29T07:00:28.555Z,27.27
2022-10-29T07:02:57.249Z,20.67
2022-10-29T07:05:24.890Z,21.53
2022-10-29T07:07:56.862Z,24.33
2022-10-29T07:10:25.832Z,13.63
2022-10-29T07:12:52.956Z,22.07
2022-10-29T07:15:24.164Z,24.37
2022-10-29T07:18:01.987Z,30.03
2022-10-29T07:20:31.580Z,24.80
2022-10-29T07:22:59.547Z,20.80
2022-10-29T07:25:27.794Z,12.73
2022-10-29T07:27:55.435Z,21.93
2022-10-29T07:30:22.839Z,22.03
2022-10-29T07:32:49.834Z,26.90
2022-10-29T07:35:16.954Z,24.83
2022-10-29T07:37:43.942Z,23.80
2022-10-29T07:40:11.570Z,51.77
2022-10-29T07:42:38.435Z,60.20
2022-10-29T07:45:06.390Z,60.67
2022-10-29T07:47:33.291Z,61.20
2022-10-29T07:50:00.296Z,42.17
2022-10-29T07:52:27.220Z,43.07
2022-10-29T07:54:54.136Z,46.30
2022-10-29T07:57:22.516Z,38.03
2022-10-29T07:59:50.487Z,42.50
2022-10-29T08:02:17.478Z,26.77
2022-10-29T08:04:44.505Z,34.50
2022-10-29T08:07:11.364Z,24.93
2022-10-29T08:09:41.356Z,21.30
2022-10-29T08:12:11.717Z,17.13
2022-10-29T08:14:38.611Z,35.67
2022-10-29T08:17:05.545Z,19.97
2022-10-29T08:19:32.478Z,20.10
2022-10-29T08:21:59.354Z,25.73
2022-10-29T08:24:26.242Z,25.80
2022-10-29T08:26:53.145Z,22.90
2022-10-29T08:29:20.008Z,19.93
2022-10-29T08:31:46.904Z,25.30
2022-10-29T08:34:13.825Z,22.00
2022-10-29T08:36:41.921Z,49.23
2022-10-29T08:39:08.809Z,16.13
2022-10-29T08:42:01.058Z,18.50
2022-10-29T08:44:51.190Z,17.60
2022-10-29T08:47:23.412Z,25.80
2022-10-29T08:50:27.792Z,36.50
2022-10-29T08:53:19.518Z,58.03
2022-10-29T08:55:43.003Z,42.63
2022-10-29T08:58:33.288Z,54.80
2022-10-29T09:01:00.465Z,47.10
2022-10-29T09:03:29.832Z,52.20
2022-10-29T09:06:23.574Z,46.97
2022-10-29T09:09:28.374Z,26.47
2022-10-29T09:12:32.229Z,18.27
2022-10-29T09:15:53.464Z,16.60
2022-10-29T09:18:59.073Z,29.00
2022-10-29T09:22:29.108Z,38.43
2022-10-29T09:25:18.851Z,31.60
2022-10-29T09:31:37.919Z,24.03
2022-10-29T09:34:13.478Z,26.23
2022-10-29T09:36:44.926Z,20.60
2022-10-29T09:39:23.320Z,26.50
2022-10-29T09:41:54.861Z,21.57
2022-10-29T09:44:23.869Z,17.73
2022-10-29T09:47:26.103Z,23.33
2022-10-29T09:50:27.923Z,9.93
2022-10-29T09:52:55.131Z,23.83
2022-10-29T09:55:53.970Z,14.30
2022-10-29T09:58:26.200Z,8.93
2022-10-29T10:00:54.791Z,18.07
2022-10-29T10:03:29.807Z,20.43
2022-10-29T10:06:07.017Z,16.53
2022-10-29T10:08:35.697Z,14.70
2022-10-29T10:11:05.306Z,7.43
2022-10-29T10:13:38.444Z,17.03
2022-10-29T10:16:06.657Z,13.07
2022-10-29T10:21:26.304Z,15.50
2022-10-29T10:23:55.280Z,14.20
2022-10-29T10:26:43.130Z,14.90
2022-10-29T10:29:22.233Z,20.60
2022-10-29T10:31:55.827Z,11.87
2022-10-29T10:34:36.482Z,11.00
2022-10-29T10:37:07.450Z,10.60
2022-10-29T10:39:54.896Z,10.07
2022-10-29T10:42:37.204Z,23.63
2022-10-29T10:45:27.054Z,13.60
2022-10-29T10:47:59.228Z,17.93
2022-10-29T10:50:32.701Z,21.00
2022-10-29T10:53:03.019Z,15.03
2022-10-29T10:55:38.064Z,14.43
2022-10-29T10:58:37.581Z,13.30
2022-10-29T11:01:14.402Z,14.40
2022-10-29T11:03:47.610Z,10.80
2022-10-29T11:06:35.687Z,19.37
2022-10-29T11:09:07.424Z,15.23
2022-10-29T11:11:52.763Z,9.93
2022-10-29T11:14:30.733Z,19.23
2022-10-29T11:17:02.237Z,22.07
2022-10-29T11:19:43.259Z,12.67
2022-10-29T11:22:45.248Z,11.70
2022-10-29T11:25:31.573Z,20.13
2022-10-29T11:28:28.929Z,31.67
2022-10-29T11:31:02.875Z,11.07
2022-10-29T11:33:37.847Z,13.40
2022-10-29T11:36:25.754Z,11.87
2022-10-29T11:39:01.999Z,17.63
2022-10-29T11:41:40.597Z,15.53
2022-10-29T11:44:13.616Z,20.20
2022-10-29T11:47:35.668Z,23.87
2022-10-29T11:50:26.367Z,10.00
2022-10-29T11:53:19.158Z,29.43
2022-10-29T11:56:19.405Z,8.50
2022-10-29T12:02:26.957Z,11.60
2022-10-29T12:05:27.478Z,18.83
2022-10-29T12:08:22.867Z,17.83
2022-10-29T12:11:14.354Z,7.90
2022-10-29T12:14:33.385Z,16.17
2022-10-29T12:17:44.306Z,7.07
2022-10-29T12:20:37.620Z,12.17
2022-10-29T12:26:48.971Z,12.67
2022-10-29T12:29:48.631Z,17.90
2022-10-29T12:32:44.827Z,17.60
2022-10-29T12:35:33.850Z,28.43
2022-10-29T12:38:34.772Z,10.80
2022-10-29T12:41:20.970Z,19.53
2022-10-29T12:43:48.525Z,10.10
2022-10-29T12:46:39.555Z,12.00
2022-10-29T12:49:43.423Z,17.13
2022-10-29T12:52:33.349Z,12.77
2022-10-29T12:55:01.462Z,9.70
2022-10-29T12:57:34.797Z,17.47
2022-10-29T13:00:25.702Z,17.13
2022-10-29T13:02:58.509Z,6.77
2022-10-29T13:05:36.138Z,11.60
2022-10-29T13:08:18.739Z,14.27
2022-10-29T13:10:50.905Z,22.67
2022-10-29T13:13:27.400Z,25.67
2022-10-29T13:16:03.658Z,21.43
2022-10-29T13:19:09.005Z,12.37
2022-10-29T13:22:16.756Z,9.07
2022-10-29T13:24:43.740Z,13.83
2022-10-29T13:27:16.679Z,11.90
2022-10-29T13:29:47.915Z,7.30
2022-10-29T13:32:32.657Z,17.50
2022-10-29T13:35:23.399Z,13.93
2022-10-29T13:38:11.871Z,21.53
2022-10-29T13:40:54.465Z,9.13
2022-10-29T13:43:22.202Z,14.00
2022-10-29T13:45:59.739Z,15.17
2022-10-29T13:48:34.871Z,12.40
2022-10-29T13:51:07.588Z,15.30
2022-10-29T13:53:52.978Z,18.37
2022-10-29T13:56:33.648Z,17.03
2022-10-29T13:59:04.855Z,13.77
2022-10-29T14:01:34.089Z,18.67
2022-10-29T14:04:07.168Z,25.07
2022-10-29T14:06:39.484Z,13.90
2022-10-29T14:09:22.485Z,12.63
2022-10-29T14:12:10.221Z,23.50
2022-10-29T14:15:06.866Z,10.73
2022-10-29T14:17:34.490Z,13.67
2022-10-29T14:20:01.431Z,13.63
2022-10-29T14:22:37.756Z,16.57
2022-10-29T14:25:25.185Z,13.13
2022-10-29T14:28:24.372Z,15.67
2022-10-29T14:31:14.997Z,18.93
2022-10-29T14:34:01.309Z,13.73
2022-10-29T14:36:49.761Z,20.07
2022-10-29T14:39:32.364Z,15.00
2022-10-29T14:42:06.899Z,21.47
2022-10-29T14:44:34.618Z,12.17
2022-10-29T14:47:08.267Z,14.33
2022-10-29T14:49:41.509Z,13.43
2022-10-29T14:52:19.047Z,9.40
2022-10-29T14:54:49.972Z,15.83
2022-10-29T14:57:21.253Z,19.83
2022-10-29T14:59:52.752Z,14.80
2022-10-29T15:05:28.414Z,16.30
2022-10-29T15:08:16.449Z,10.93
2022-10-29T15:10:52.210Z,19.77
2022-10-29T15:13:29.501Z,23.60
2022-10-29T15:16:08.436Z,19.60
2022-10-29T15:18:37.965Z,16.73
2022-10-29T15:21:05.809Z,22.43
2022-10-29T15:23:42.773Z,25.70
2022-10-29T15:26:16.141Z,19.50
2022-10-29T15:28:48.334Z,9.33
2022-10-29T15:31:41.638Z,12.30
2022-10-29T15:34:17.996Z,24.50
2022-10-29T15:36:51.183Z,16.30
2022-10-29T15:39:27.052Z,19.73
2022-10-29T15:42:00.615Z,18.50
2022-10-29T15:44:36.886Z,27.90
2022-10-29T15:47:20.250Z,22.63
2022-10-29T15:49:47.210Z,14.23
2022-10-29T15:52:19.098Z,19.23
2022-10-29T15:54:47.624Z,15.40
2022-10-29T15:57:16.395Z,28.90
2022-10-29T15:59:43.449Z,12.70
2022-10-29T16:02:17.784Z,28.20
2022-10-29T16:04:44.888Z,23.60
2022-10-29T16:07:16.168Z,17.20
2022-10-29T16:09:47.683Z,12.80
2022-10-29T16:12:14.855Z,16.67
2022-10-29T16:14:41.904Z,21.23
2022-10-29T16:17:17.045Z,25.93
2022-10-29T16:19:44.280Z,26.83
2022-10-29T16:22:23.663Z,26.80
2022-10-29T16:24:50.808Z,19.73
2022-10-29T16:27:18.710Z,23.50
2022-10-29T16:29:50.029Z,22.17
2022-10-29T16:32:19.341Z,23.47
2022-10-29T16:34:49.877Z,16.27
2022-10-29T16:37:18.854Z,38.07
2022-10-29T16:39:45.756Z,27.00
2022-10-29T16:42:30.625Z,14.27
2022-10-29T16:44:57.738Z,35.93
2022-10-29T16:47:24.698Z,17.13
2022-10-29T16:49:51.767Z,10.30
2022-10-29T16:52:21.841Z,14.23
2022-10-29T16:54:50.157Z,18.90
2022-10-29T16:57:17.150Z,11.80
2022-10-29T16:59:44.063Z,18.30
2022-10-29T17:02:12.317Z,17.73
2022-10-29T17:04:39.391Z,18.17
2022-10-29T17:07:06.558Z,19.40
2022-10-29T17:09:37.701Z,15.73
2022-10-29T17:12:04.974Z,11.50
2022-10-29T17:14:31.951Z,9.73
2022-10-29T17:17:00.101Z,23.23
2022-10-29T17:19:27.511Z,20.90
2022-10-29T17:21:54.550Z,15.57
2022-10-29T17:24:21.482Z,18.93
2022-10-29T17:26:48.547Z,10.00
2022-10-29T17:29:15.625Z,20.90
2022-10-29T17:31:42.766Z,24.10
2022-10-29T17:34:09.850Z,11.93
2022-10-29T17:36:40.959Z,12.77
2022-10-29T17:39:08.166Z,17.57
2022-10-29T17:41:35.141Z,7.87
2022-10-29T17:44:02.063Z,18.00
2022-10-29T17:46:29.017Z,26.97
2022-10-29T17:48:56.998Z,16.37
2022-10-29T17:51:24.022Z,24.63
2022-10-29T17:53:51.320Z,12.80
2022-10-29T17:56:18.369Z,17.80
2022-10-29T17:58:45.370Z,12.60
2022-10-29T18:01:12.664Z,22.37
2022-10-29T18:03:40.089Z,13.70
2022-10-29T18:06:09.738Z,13.50
2022-10-29T18:08:38.016Z,17.07
2022-10-29T18:11:16.993Z,14.33
2022-10-29T18:13:45.590Z,18.20
2022-10-29T18:16:23.288Z,17.20
2022-10-29T18:19:01.902Z,28.13
2022-10-29T18:21:30.668Z,34.63
2022-10-29T18:23:58.445Z,17.53
2022-10-29T18:26:34.014Z,18.47
2022-10-29T18:29:03.563Z,17.73
2022-10-29T18:31:31.864Z,17.67
2022-10-29T18:34:00.656Z,12.30
2022-10-29T18:36:27.804Z,14.10
2022-10-29T18:38:56.662Z,21.60
2022-10-29T18:41:24.473Z,14.93
2022-10-29T18:43:51.650Z,15.63
2022-10-29T18:46:19.651Z,26.73
2022-10-29T18:48:48.308Z,17.47
2022-10-29T18:51:20.954Z,12.00
2022-10-29T18:53:47.869Z,14.87
2022-10-29T18:56:16.688Z,23.63
2022-10-29T18:58:44.740Z,17.93
2022-10-29T19:01:17.878Z,27.67
2022-10-29T19:03:48.596Z,17.30
2022-10-29T19:06:15.518Z,19.10
2022-10-29T19:08:44.056Z,14.20
2022-10-29T19:11:13.837Z,15.60
2022-10-29T19:13:41.462Z,11.70
2022-10-29T19:16:11.001Z,23.43
2022-10-29T19:18:39.960Z,10.60
2022-10-29T19:21:18.496Z,25.83
2022-10-29T19:23:46.451Z,13.83
2022-10-29T19:26:16.378Z,14.27
2022-10-29T19:28:44.653Z,19.77
2022-10-29T19:31:17.973Z,24.17
2022-10-29T19:33:52.825Z,20.73
2022-10-29T19:36:20.998Z,22.80
2022-10-29T19:38:48.299Z,21.83
2022-10-29T19:41:16.063Z,30.23
2022-10-29T19:43:43.548Z,26.50
2022-10-29T19:46:19.276Z,31.07
2022-10-29T19:48:50.927Z,38.03
2022-10-29T19:51:20.478Z,28.40
2022-10-29T19:53:48.609Z,19.13
2022-10-29T19:56:16.536Z,15.57
2022-10-29T19:58:43.627Z,21.47
2022-10-29T20:01:19.150Z,15.73
2022-10-29T20:03:47.199Z,17.37
2022-10-29T20:06:14.970Z,17.23
2022-10-29T20:08:42.243Z,19.27
2022-10-29T20:11:09.219Z,12.77
2022-10-29T20:13:36.797Z,19.00
2022-10-29T20:16:13.509Z,22.67
2022-10-29T20:18:40.473Z,18.57
2022-10-29T20:21:08.223Z,16.33
2022-10-29T20:23:35.425Z,13.47
2022-10-29T20:26:02.389Z,20.37
2022-10-29T20:28:29.322Z,15.30
2022-10-29T20:31:40.071Z,26.10
2022-10-29T20:34:09.618Z,14.80
2022-10-29T20:36:36.793Z,18.17
2022-10-29T20:39:04.093Z,13.80
2022-10-29T20:41:31.091Z,12.53
2022-10-29T20:44:00.034Z,10.43
2022-10-29T20:46:27.551Z,14.33
2022-10-29T20:48:55.081Z,16.80
2022-10-29T20:51:23.184Z,13.27
2022-10-29T20:53:51.203Z,11.50
2022-10-29T20:56:22.491Z,20.70
2022-10-29T20:58:49.454Z,12.63
2022-10-29T21:01:19.179Z,12.03
2022-10-29T21:03:48.541Z,12.80
2022-10-29T21:06:17.494Z,15.17
2022-10-29T21:08:46.069Z,15.07
2022-10-29T21:11:14.354Z,20.50
2022-10-29T21:13:41.350Z,15.13
2022-10-29T21:16:26.551Z,29.87
2022-10-29T21:19:01.312Z,18.13
2022-10-29T21:21:29.680Z,14.17
2022-10-29T21:23:59.480Z,24.57
2022-10-29T21:26:28.339Z,18.83
2022-10-29T21:28:55.804Z,14.23
2022-10-29T21:31:23.123Z,28.23
2022-10-29T21:33:51.834Z,20.63
2022-10-29T21:36:19.669Z,27.20
2022-10-29T21:38:47.045Z,20.63
2022-10-29T21:41:14.163Z,25.90
2022-10-29T21:43:41.190Z,25.87
2022-10-29T21:46:08.717Z,25.40
2022-10-29T21:48:36.109Z,21.60
2022-10-29T21:51:10.321Z,26.93
2022-10-29T21:53:37.547Z,19.47
2022-10-29T21:56:07.264Z,20.57
2022-10-29T21:58:34.300Z,18.03
2022-10-29T22:01:27.818Z,25.17
2022-10-29T22:03:54.836Z,21.30
2022-10-29T22:06:23.954Z,25.80
2022-10-29T22:08:57.210Z,23.63
2022-10-29T22:11:26.691Z,22.07
2022-10-29T22:13:54.243Z,23.50
2022-10-29T22:16:22.438Z,29.17
2022-10-29T22:18:52.385Z,29.43
2022-10-29T22:21:22.305Z,18.83
2022-10-29T22:23:56.940Z,18.30
2022-10-29T22:26:26.476Z,14.70
2022-10-29T22:28:53.640Z,24.50
2022-10-29T22:31:22.036Z,21.23
2022-10-29T22:33:49.197Z,38.53
2022-10-29T22:36:21.767Z,32.37
2022-10-29T22:38:53.996Z,22.23
2022-10-29T22:41:21.211Z,38.13
2022-10-29T22:43:48.078Z,19.20
2022-10-29T22:46:16.617Z,23.57
2022-10-29T22:48:44.095Z,26.93
2022-10-29T22:51:17.539Z,30.63
2022-10-29T22:53:45.196Z,33.63
2022-10-29T22:56:16.027Z,38.53
2022-10-29T22:58:43.364Z,30.47
2022-10-29T23:01:16.430Z,43.67
2022-10-29T23:03:44.648Z,40.03
2022-10-29T23:06:13.953Z,34.23
2022-10-29T23:08:41.132Z,37.47
2022-10-29T23:11:16.692Z,33.83
2022-10-29T23:13:43.641Z,39.20
2022-10-29T23:16:10.586Z,30.80
2022-10-29T23:18:37.481Z,40.10
2022-10-29T23:21:06.453Z,42.37
2022-10-29T23:23:59.780Z,46.70
2022-10-29T23:26:27.419Z,38.77
2022-10-29T23:28:54.356Z,42.83
2022-10-29T23:31:23.592Z,44.83
2022-10-29T23:33:52.410Z,41.87
2022-10-29T23:36:21.043Z,32.73
2022-10-29T23:38:47.888Z,36.03
2022-10-29T23:41:15.243Z,36.97
2022-10-29T23:43:42.375Z,55.30
2022-10-29T23:46:09.442Z,29.97
2022-10-29T23:48:36.367Z,35.20
2022-10-29T23:51:03.439Z,28.63
2022-10-29T23:53:30.380Z,43.93
2022-10-29T23:55:57.308Z,36.97
2022-10-29T23:58:24.270Z,36.20
